Time;durP1;ratioP1;P1;durP2;ratioP2;P2;SDS_P1;SDS_P2;PMS_P1;PMS_P2;Temp;Humidity;BMP_temperature;BMP_pressure;BME280_temperature;BME280_humidity;BME280_pressure;Samples;Min_cycle;Max_cycle;Signal;HPM_P1;HPM_P2
2023/06/01 00:01:12;;;;;;;12.38;7.07;;;;;;;16.00;97.01;102191.41;5208106;28;20072;-72
2023/06/01 00:03:44;;;;;;;10.48;6.35;;;;;;;15.88;99.23;102197.78;5208440;28;20030;-72
2023/06/01 00:06:15;;;;;;;8.95;5.65;;;;;;;15.78;100.00;102192.41;5208726;28;20084;-72
2023/06/01 00:08:47;;;;;;;8.18;5.95;;;;;;;15.87;100.00;102196.06;5208805;28;20027;-72
2023/06/01 00:11:18;;;;;;;11.07;6.25;;;;;;;15.68;100.00;102202.13;5210268;28;20026;-72
2023/06/01 00:13:49;;;;;;;10.95;6.60;;;;;;;15.68;100.00;102190.69;5189944;28;20490;-73
2023/06/01 00:16:22;;;;;;;9.10;6.80;;;;;;;15.76;100.00;102191.72;5210133;28;20494;-73
2023/06/01 00:18:55;;;;;;;8.43;6.72;;;;;;;15.56;100.00;102193.38;5210123;28;20475;-72
2023/06/01 00:21:28;;;;;;;10.35;7.82;;;;;;;15.39;100.00;102185.22;5205744;28;20360;-72
2023/06/01 00:23:59;;;;;;;12.25;7.85;;;;;;;15.38;100.00;102194.94;5209665;28;20072;-73
2023/06/01 00:26:31;;;;;;;14.50;8.60;;;;;;;15.28;100.00;102181.66;5210357;28;20116;-72
2023/06/01 00:29:03;;;;;;;12.07;8.30;;;;;;;15.32;100.00;102187.53;5208225;28;20141;-72
2023/06/01 00:31:34;;;;;;;12.50;8.38;;;;;;;15.14;100.00;102179.31;5208549;28;20033;-72
2023/06/01 00:34:07;;;;;;;10.13;7.75;;;;;;;15.17;100.00;102184.34;5206706;28;20021;-72
2023/06/01 00:36:38;;;;;;;10.95;7.55;;;;;;;15.40;99.99;102187.72;5206419;28;20057;-72
2023/06/01 00:39:09;;;;;;;10.00;7.47;;;;;;;15.22;100.00;102178.69;5205482;28;20135;-73
2023/06/01 00:41:40;;;;;;;10.82;7.53;;;;;;;15.21;100.00;102196.34;5206658;28;20144;-74
2023/06/01 00:44:12;;;;;;;12.32;8.05;;;;;;;15.22;100.00;102184.81;5208223;28;20064;-72
2023/06/01 00:46:43;;;;;;;10.98;8.18;;;;;;;15.16;100.00;102185.34;5205828;28;20040;-74
2023/06/01 00:49:15;;;;;;;10.73;7.47;;;;;;;15.08;100.00;102190.41;5207319;28;20080;-72
2023/06/01 00:51:46;;;;;;;10.73;8.10;;;;;;;15.06;100.00;102173.84;5207575;28;20150;-73
2023/06/01 00:54:19;;;;;;;10.27;7.63;;;;;;;14.88;100.00;102186.75;5206106;28;20108;-72
2023/06/01 00:56:51;;;;;;;12.00;8.02;;;;;;;14.83;100.00;102187.13;5207902;28;20026;-72
2023/06/01 00:59:23;;;;;;;11.90;8.65;;;;;;;14.80;100.00;102176.00;5209143;28;20026;-71
2023/06/01 01:01:54;;;;;;;10.50;8.02;;;;;;;14.78;100.00;102186.69;5209351;28;20083;-73
2023/06/01 01:04:26;;;;;;;11.73;8.55;;;;;;;14.83;100.00;102192.41;5189844;28;20041;-72
2023/06/01 01:07:20;;;;;;;10.90;8.43;;;;;;;14.81;100.00;102194.34;5208970;28;20030;-73
2023/06/01 01:10:06;;;;;;;10.02;8.15;;;;;;;14.54;100.00;102193.91;5206036;28;20026;-73
2023/06/01 01:12:49;;;;;;;12.38;8.90;;;;;;;14.58;100.00;102192.72;5189251;28;20040;-71
2023/06/01 01:15:35;;;;;;;;;;;;;;;15.26;94.79;102194.13;5199460;28;20026;-73
2023/06/01 01:18:17;;;;;;;17.38;8.48;;;;;;;14.56;100.00;102187.56;5208262;28;20039;-73
2023/06/01 01:20:53;;;;;;;16.83;10.20;;;;;;;14.41;100.00;102195.84;5203825;28;20500;-71
2023/06/01 01:23:30;;;;;;;16.48;9.77;;;;;;;14.35;100.00;102202.41;5207947;28;20030;-73
2023/06/01 01:26:35;;;;;;;15.05;9.70;;;;;;;14.46;100.00;102197.13;5200862;28;20045;-72
2023/06/01 01:29:10;;;;;;;12.32;9.10;;;;;;;14.17;100.00;102188.91;5207767;28;20105;-72
2023/06/01 01:31:44;;;;;;;12.18;9.55;;;;;;;14.02;100.00;102206.75;5207994;28;20030;-73
2023/06/01 01:34:18;;;;;;;15.13;10.07;;;;;;;14.02;100.00;102200.66;5205853;28;20018;-73
2023/06/01 01:36:50;;;;;;;14.38;10.18;;;;;;;13.91;100.00;102203.28;5207657;28;20486;-72
2023/06/01 01:39:21;;;;;;;12.77;10.20;;;;;;;13.82;100.00;102189.00;5207603;28;20033;-71
2023/06/01 01:41:52;;;;;;;12.98;10.13;;;;;;;13.88;100.00;102210.44;5208379;28;20038;-71
2023/06/01 01:44:24;;;;;;;14.23;10.50;;;;;;;13.97;100.00;102205.44;5208285;28;20021;-73
2023/06/01 01:47:22;;;;;;;11.82;10.27;;;;;;;13.92;100.00;102213.69;5208370;28;20025;-71
2023/06/01 01:50:03;;;;;;;12.70;10.00;;;;;;;13.96;100.00;102209.03;5200051;28;20055;-72
2023/06/01 01:52:38;;;;;;;15.65;11.15;;;;;;;13.68;100.00;102213.78;5207261;28;20406;-72
2023/06/01 01:55:11;;;;;;;15.85;11.57;;;;;;;13.73;100.00;102211.63;5207319;28;20028;-73
2023/06/01 01:57:43;;;;;;;;;;;;;;;14.36;100.00;102215.50;5206317;28;20465;-71
2023/06/01 02:00:14;;;;;;;14.52;10.98;;;;;;;13.56;100.00;102207.66;5208494;28;20094;-71
2023/06/01 02:02:46;;;;;;;14.05;10.77;;;;;;;13.68;100.00;102202.41;5204058;28;20041;-72
2023/06/01 02:05:17;;;;;;;16.17;12.75;;;;;;;13.49;100.00;102205.59;5208726;28;20463;-73
2023/06/01 02:07:49;;;;;;;16.40;11.73;;;;;;;13.50;100.00;102207.28;5212097;28;20422;-72
2023/06/01 02:10:20;;;;;;;16.75;12.88;;;;;;;13.42;100.00;102207.03;5212968;28;20490;-71
2023/06/01 02:12:51;;;;;;;13.77;11.65;;;;;;;13.38;100.00;102199.34;5211443;28;20044;-71
2023/06/01 02:15:23;;;;;;;17.42;11.98;;;;;;;13.34;100.00;102197.06;5210717;28;20118;-71
2023/06/01 02:17:54;;;;;;;14.25;12.35;;;;;;;13.31;100.00;102195.50;5211246;28;20060;-71
2023/06/01 02:20:25;;;;;;;14.00;11.50;;;;;;;13.36;100.00;102197.78;5212859;28;20080;-72
2023/06/01 02:22:56;;;;;;;16.35;11.68;;;;;;;13.32;100.00;102194.53;5212256;28;20058;-71
2023/06/01 02:25:28;;;;;;;15.30;12.85;;;;;;;13.19;100.00;102193.75;5209218;28;20029;-72
2023/06/01 02:27:59;;;;;;;14.70;11.40;;;;;;;13.05;100.00;102181.59;5211567;28;20278;-71
2023/06/01 02:30:30;;;;;;;13.05;11.68;;;;;;;13.14;100.00;102201.13;5212131;28;20033;-72
2023/06/01 02:33:02;;;;;;;15.02;11.95;;;;;;;13.08;100.00;102191.91;5210753;28;20057;-73
2023/06/01 02:35:33;;;;;;;14.48;11.48;;;;;;;13.01;100.00;102208.25;5210415;28;20387;-72
2023/06/01 02:38:05;;;;;;;13.93;11.55;;;;;;;13.10;100.00;102204.94;5212681;28;20116;-71
2023/06/01 02:40:36;;;;;;;17.05;11.60;;;;;;;13.05;100.00;102204.44;5211560;28;20133;-72
2023/06/01 02:43:07;;;;;;;14.82;11.50;;;;;;;13.08;100.00;102185.81;5208845;28;20486;-71
2023/06/01 02:45:39;;;;;;;16.52;11.77;;;;;;;12.87;100.00;102183.78;5211024;28;20101;-71
2023/06/01 02:48:10;;;;;;;14.52;11.45;;;;;;;13.01;100.00;102198.56;5212461;28;20095;-73
2023/06/01 02:50:42;;;;;;;15.13;10.73;;;;;;;13.02;100.00;102186.25;5209178;28;21231;-71
2023/06/01 02:53:13;;;;;;;14.80;10.55;;;;;;;12.99;100.00;102197.00;5210234;28;20072;-71
2023/06/01 02:55:44;;;;;;;13.18;10.88;;;;;;;12.87;100.00;102189.06;5212173;28;20034;-71
2023/06/01 02:58:16;;;;;;;14.68;9.85;;;;;;;12.89;100.00;102202.94;5211050;28;20045;-71
2023/06/01 03:00:47;;;;;;;12.02;8.82;;;;;;;12.86;100.00;102184.75;5209631;28;20079;-71
2023/06/01 03:03:18;;;;;;;12.77;10.05;;;;;;;12.87;100.00;102196.09;5211269;28;20034;-71
2023/06/01 03:05:50;;;;;;;12.02;8.68;;;;;;;12.86;100.00;102207.59;5210427;28;20037;-72
2023/06/01 03:08:24;;;;;;;14.23;9.18;;;;;;;12.86;100.00;102200.53;5208786;28;20393;-71
2023/06/01 03:10:55;;;;;;;10.68;8.13;;;;;;;12.79;100.00;102206.34;5209452;28;20032;-71
2023/06/01 03:13:27;;;;;;;13.98;9.57;;;;;;;12.79;100.00;102204.56;5210589;28;20037;-71
2023/06/01 03:15:58;;;;;;;12.98;8.52;;;;;;;12.66;100.00;102206.41;5209730;28;20036;-73
2023/06/01 03:18:30;;;;;;;11.75;8.50;;;;;;;12.68;100.00;102201.03;5209610;28;20032;-72
2023/06/01 03:21:02;;;;;;;13.50;8.25;;;;;;;12.73;100.00;102199.75;5211186;28;20036;-71
2023/06/01 03:23:33;;;;;;;13.95;8.57;;;;;;;12.66;100.00;102206.41;5211138;28;20157;-71
2023/06/01 03:26:04;;;;;;;11.27;8.25;;;;;;;12.65;100.00;102204.69;5209730;28;20117;-71
2023/06/01 03:28:36;;;;;;;12.43;7.88;;;;;;;12.73;100.00;102204.16;5209513;28;20523;-71
2023/06/01 03:31:07;;;;;;;8.98;7.45;;;;;;;12.80;100.00;102210.66;5207917;28;20117;-72
2023/06/01 03:33:39;;;;;;;13.65;8.27;;;;;;;12.82;100.00;102206.97;5209651;28;20014;-72
2023/06/01 03:36:10;;;;;;;13.02;7.88;;;;;;;12.83;100.00;102215.69;5209324;28;20117;-71
2023/06/01 03:38:42;;;;;;;10.18;7.10;;;;;;;12.78;100.00;102205.50;5210730;28;20124;-72
2023/06/01 03:41:13;;;;;;;9.52;8.32;;;;;;;12.83;100.00;102205.19;5211743;28;20026;-71
2023/06/01 03:43:45;;;;;;;9.38;7.15;;;;;;;12.78;100.00;102208.13;5209953;28;20088;-71
2023/06/01 03:46:17;;;;;;;13.80;8.75;;;;;;;12.85;100.00;102211.19;5209769;28;20037;-71
2023/06/01 03:48:50;;;;;;;11.73;9.02;;;;;;;12.81;100.00;102210.56;5209244;28;20319;-71
2023/06/01 03:51:22;;;;;;;11.43;8.02;;;;;;;12.89;100.00;102199.47;5206727;28;20038;-71
2023/06/01 03:53:53;;;;;;;10.43;8.13;;;;;;;12.89;100.00;102213.47;5209517;28;20471;-71
2023/06/01 03:56:24;;;;;;;12.57;7.25;;;;;;;12.95;100.00;102208.69;5208559;28;20030;-71
2023/06/01 03:58:56;;;;;;;11.48;7.68;;;;;;;12.91;100.00;102215.97;5211514;28;20033;-71
2023/06/01 04:01:32;;;;;;;10.75;7.93;;;;;;;13.05;100.00;102215.81;5210515;28;20399;-72
2023/06/01 04:04:05;;;;;;;11.38;8.63;;;;;;;12.86;100.00;102220.75;5207831;28;20037;-73
2023/06/01 04:06:36;;;;;;;;;;;;;;;13.60;100.00;102218.81;5207000;28;20091;-71
2023/06/01 04:09:09;;;;;;;12.50;7.53;;;;;;;12.99;100.00;102218.03;5210069;28;19917;-72
2023/06/01 04:11:40;;;;;;;9.50;7.13;;;;;;;13.03;100.00;102214.22;5209730;28;20025;-72
2023/06/01 04:14:11;;;;;;;11.50;7.72;;;;;;;13.03;100.00;102217.72;5207226;28;20033;-71
2023/06/01 04:16:43;;;;;;;9.75;7.03;;;;;;;12.99;100.00;102221.50;5206467;28;20497;-74
2023/06/01 04:19:14;;;;;;;12.00;7.85;;;;;;;12.98;100.00;102224.25;5204301;28;20368;-72
2023/06/01 04:21:45;;;;;;;10.43;7.35;;;;;;;12.88;100.00;102216.22;5208807;28;20028;-72
2023/06/01 04:24:17;;;;;;;9.52;7.32;;;;;;;12.88;100.00;102224.09;5210472;28;20037;-71
2023/06/01 04:26:50;;;;;;;12.65;7.15;;;;;;;12.82;100.00;102214.84;5210143;28;20053;-72
2023/06/01 04:29:21;;;;;;;10.13;6.80;;;;;;;13.02;100.00;102216.03;5208651;28;20049;-73
2023/06/01 04:31:54;;;;;;;11.80;6.80;;;;;;;13.01;100.00;102218.78;5208303;28;20025;-72
2023/06/01 04:34:26;;;;;;;10.32;6.63;;;;;;;12.95;100.00;102221.84;5209760;28;20129;-71
2023/06/01 04:36:57;;;;;;;9.40;6.78;;;;;;;12.94;100.00;102218.38;5209115;28;20040;-72
2023/06/01 04:39:28;;;;;;;12.80;8.05;;;;;;;12.96;100.00;102229.66;5210671;28;20024;-71
2023/06/01 04:42:01;;;;;;;9.80;6.88;;;;;;;13.04;100.00;102229.09;5210091;28;20060;-71
2023/06/01 04:44:34;;;;;;;12.13;7.38;;;;;;;13.05;100.00;102226.34;5208921;28;20081;-71
2023/06/01 04:47:05;;;;;;;11.55;7.07;;;;;;;13.06;100.00;102238.53;5210600;28;20053;-72
2023/06/01 04:49:36;;;;;;;12.40;6.90;;;;;;;13.12;100.00;102229.38;5209452;28;20137;-71
2023/06/01 04:52:09;;;;;;;9.73;7.53;;;;;;;13.05;100.00;102228.97;5207763;28;20029;-71
2023/06/01 04:54:41;;;;;;;11.60;7.43;;;;;;;13.13;100.00;102231.88;5208948;28;20080;-72
2023/06/01 04:57:13;;;;;;;13.30;7.90;;;;;;;13.05;100.00;102234.22;5204817;28;20033;-73
2023/06/01 04:59:44;;;;;;;11.00;7.40;;;;;;;12.97;100.00;102225.22;5207822;28;20026;-71
2023/06/01 05:02:16;;;;;;;13.80;8.65;;;;;;;13.00;100.00;102230.25;5206468;28;20026;-73
2023/06/01 05:04:47;;;;;;;11.95;7.22;;;;;;;13.09;100.00;102234.84;5206913;28;20263;-70
2023/06/01 05:07:18;;;;;;;10.18;8.00;;;;;;;13.06;100.00;102229.81;5208654;28;20022;-71
2023/06/01 05:09:50;;;;;;;11.43;8.27;;;;;;;13.10;100.00;102223.34;5208781;28;20053;-72
2023/06/01 05:12:21;;;;;;;12.38;7.50;;;;;;;13.09;100.00;102219.06;5204199;28;20410;-72
2023/06/01 05:14:52;;;;;;;12.43;8.23;;;;;;;13.09;100.00;102221.69;5207069;28;20187;-72
2023/06/01 05:17:24;;;;;;;10.43;7.38;;;;;;;13.19;100.00;102220.06;5208460;28;20033;-71
2023/06/01 05:19:56;;;;;;;11.27;7.88;;;;;;;13.23;100.00;102216.28;5205407;28;20057;-72
2023/06/01 05:22:28;;;;;;;14.25;8.57;;;;;;;13.33;100.00;102229.59;5219527;23;20514;-71
2023/06/01 05:25:00;;;;;;;9.73;7.75;;;;;;;13.33;100.00;102227.81;5183423;28;20029;-70
2023/06/01 05:27:31;;;;;;;11.05;7.57;;;;;;;13.41;100.00;102221.13;5188021;28;20070;-72
2023/06/01 05:30:03;;;;;;;11.50;8.13;;;;;;;13.31;100.00;102224.44;5188068;28;20026;-72
2023/06/01 05:32:35;;;;;;;12.35;7.40;;;;;;;13.34;100.00;102218.97;5188911;28;20113;-73
2023/06/01 05:35:06;;;;;;;12.82;8.50;;;;;;;13.46;100.00;102222.47;5190342;28;20377;-72
2023/06/01 05:37:38;;;;;;;13.05;8.27;;;;;;;13.51;100.00;102224.75;5173180;28;20502;-72
2023/06/01 05:40:09;;;;;;;16.55;9.07;;;;;;;13.59;100.00;102222.38;5194039;28;20032;-72
2023/06/01 05:42:41;;;;;;;13.43;8.60;;;;;;;13.61;100.00;102223.09;5162200;28;20558;-72
2023/06/01 05:45:12;;;;;;;12.50;8.65;;;;;;;13.65;100.00;102213.19;5192381;28;20056;-72
2023/06/01 05:47:43;;;;;;;12.40;8.20;;;;;;;13.62;100.00;102217.72;5193746;28;20041;-72
2023/06/01 05:50:15;;;;;;;12.65;7.88;;;;;;;13.91;100.00;102219.09;5175386;28;20569;-72
2023/06/01 05:52:46;;;;;;;11.80;7.90;;;;;;;13.92;100.00;102223.41;5187660;28;20037;-73
2023/06/01 05:55:17;;;;;;;14.75;8.77;;;;;;;13.92;99.72;102212.84;5190485;28;20147;-72
2023/06/01 05:57:48;;;;;;;11.20;8.38;;;;;;;14.10;97.30;102224.59;5191836;28;20022;-72
2023/06/01 06:00:20;;;;;;;8.68;7.78;;;;;;;14.05;99.39;102226.75;5193598;28;20038;-72
2023/06/01 06:02:51;;;;;;;9.98;8.20;;;;;;;13.97;98.58;102218.59;5194265;28;20057;-73
2023/06/01 06:05:22;;;;;;;15.13;8.55;;;;;;;13.92;98.01;102223.41;5192678;28;20026;-73
2023/06/01 06:07:53;;;;;;;17.92;8.65;;;;;;;13.92;100.00;102218.97;5172155;28;20084;-73
2023/06/01 06:10:25;;;;;;;16.88;8.63;;;;;;;13.91;98.68;102229.63;5192049;28;20034;-72
2023/06/01 06:12:56;;;;;;;13.70;8.55;;;;;;;13.90;97.96;102223.50;5186429;28;20466;-72
2023/06/01 06:15:27;;;;;;;15.38;8.85;;;;;;;13.82;98.23;102233.78;5184859;28;20039;-72
2023/06/01 06:17:59;;;;;;;14.45;8.32;;;;;;;13.78;97.62;102225.28;5191740;28;20215;-72
2023/06/01 06:20:30;;;;;;;10.50;7.90;;;;;;;13.78;97.05;102238.44;5191110;28;20080;-72
2023/06/01 06:23:01;;;;;;;12.25;8.13;;;;;;;13.74;96.85;102236.16;5172455;28;20046;-72
2023/06/01 06:25:33;;;;;;;12.57;8.45;;;;;;;13.69;98.08;102241.78;5191350;28;20109;-72
2023/06/01 06:28:04;;;;;;;11.85;8.75;;;;;;;13.83;98.71;102236.31;5193183;28;20030;-72
2023/06/01 06:30:35;;;;;;;13.18;9.10;;;;;;;13.97;97.00;102237.03;5193039;28;20402;-72
2023/06/01 06:33:07;;;;;;;13.38;8.52;;;;;;;14.05;96.45;102234.66;5189719;28;20018;-72
2023/06/01 06:35:39;;;;;;;13.38;8.82;;;;;;;14.37;96.33;102240.06;5191986;28;20084;-72
2023/06/01 06:38:12;;;;;;;13.60;8.88;;;;;;;14.72;96.80;102226.72;5193070;28;20045;-72
2023/06/01 06:40:43;;;;;;;;;;;;;;;15.39;89.24;102227.47;5175440;28;20490;-72
2023/06/01 06:43:15;;;;;;;14.90;8.75;;;;;;;15.12;88.04;102228.78;5193554;28;19913;-72
2023/06/01 06:45:46;;;;;;;10.13;8.10;;;;;;;14.93;85.83;102232.09;5193478;28;20034;-72
2023/06/01 06:48:17;;;;;;;13.80;8.68;;;;;;;14.91;86.47;102230.53;5191859;28;20022;-72
2023/06/01 06:50:48;;;;;;;11.05;8.63;;;;;;;15.07;85.34;102226.50;5192716;28;20124;-72
2023/06/01 06:53:20;;;;;;;12.27;8.05;;;;;;;15.11;84.41;102219.16;5191744;28;20400;-73
2023/06/01 06:55:51;;;;;;;12.98;8.52;;;;;;;15.25;83.67;102236.53;5192348;28;20045;-73
2023/06/01 06:58:22;;;;;;;12.35;8.73;;;;;;;15.58;84.55;102238.16;5192245;28;20037;-72
2023/06/01 07:00:54;;;;;;;12.48;9.18;;;;;;;15.50;81.56;102238.81;5192385;28;20088;-72
2023/06/01 07:03:26;;;;;;;12.40;8.80;;;;;;;15.87;81.07;102240.16;5191975;28;20034;-72
2023/06/01 07:05:57;;;;;;;14.47;9.17;;;;;;;15.96;79.32;102242.03;5191351;28;20023;-72
2023/06/01 07:08:34;;;;;;;13.75;8.05;;;;;;;16.01;79.26;102251.25;5189558;28;20041;-71
2023/06/01 07:11:05;;;;;;;11.07;8.05;;;;;;;15.80;80.38;102250.44;5192280;28;20022;-71
2023/06/01 07:13:37;;;;;;;17.70;8.85;;;;;;;15.68;78.70;102243.53;5191870;28;20529;-72
2023/06/01 07:16:09;;;;;;;12.65;8.38;;;;;;;15.55;79.50;102241.06;5191799;28;20707;-71
2023/06/01 07:18:40;;;;;;;13.35;8.23;;;;;;;15.49;78.63;102223.06;5192346;28;20034;-72
2023/06/01 07:21:11;;;;;;;10.50;7.80;;;;;;;15.61;78.63;102242.34;5191273;28;20040;-72
2023/06/01 07:23:45;;;;;;;12.38;7.80;;;;;;;15.73;78.47;102239.56;5189409;28;20100;-71
2023/06/01 07:26:17;;;;;;;14.02;7.82;;;;;;;15.74;78.38;102232.47;5190997;28;20033;-71
2023/06/01 07:28:49;;;;;;;12.38;7.78;;;;;;;15.88;77.32;102236.59;5192078;28;20027;-71
2023/06/01 07:31:21;;;;;;;13.15;8.23;;;;;;;16.08;76.02;102240.16;5190842;28;20030;-71
2023/06/01 07:33:53;;;;;;;13.15;8.52;;;;;;;15.98;75.32;102245.38;5191500;28;20033;-72
2023/06/01 07:36:24;;;;;;;10.88;7.65;;;;;;;16.11;74.37;102237.25;5191670;28;20092;-71
2023/06/01 07:38:56;;;;;;;11.15;8.13;;;;;;;16.29;74.73;102239.13;5191155;28;20084;-71
2023/06/01 07:41:27;;;;;;;14.13;7.88;;;;;;;16.35;73.13;102239.56;5191071;28;20034;-71
2023/06/01 07:43:59;;;;;;;11.73;7.18;;;;;;;16.48;72.57;102226.97;5192085;28;20068;-71
2023/06/01 07:46:30;;;;;;;10.63;7.95;;;;;;;16.60;72.76;102238.25;5171297;28;20038;-72
2023/06/01 07:49:01;;;;;;;10.77;7.43;;;;;;;16.75;71.22;102227.19;5191393;28;20511;-71
2023/06/01 07:51:32;;;;;;;12.68;7.78;;;;;;;16.74;68.72;102237.88;5191150;28;20068;-72
2023/06/01 07:54:04;;;;;;;13.32;8.10;;;;;;;16.87;70.46;102227.06;5173228;28;20118;-72
2023/06/01 07:56:35;;;;;;;12.25;7.60;;;;;;;16.93;69.94;102232.66;5189896;28;20072;-71
2023/06/01 07:59:07;;;;;;;14.18;8.27;;;;;;;17.12;68.65;102233.59;5190955;28;20522;-72
2023/06/01 08:01:38;;;;;;;11.75;8.02;;;;;;;17.22;68.08;102231.81;5188326;28;20033;-72
2023/06/01 08:04:10;;;;;;;11.80;8.43;;;;;;;17.42;68.55;102232.63;5188842;28;20041;-71
2023/06/01 08:06:43;;;;;;;11.53;8.00;;;;;;;17.37;68.35;102234.88;5188323;28;20293;-72
2023/06/01 08:09:14;;;;;;;12.23;8.32;;;;;;;17.49;66.63;102228.44;5187145;28;20038;-73
2023/06/01 08:11:46;;;;;;;11.88;7.25;;;;;;;17.56;66.34;102232.19;5188088;28;20054;-72
2023/06/01 08:14:18;;;;;;;13.45;8.57;;;;;;;17.46;63.16;102226.94;5187943;28;20814;-72
2023/06/01 08:16:51;;;;;;;14.10;8.32;;;;;;;17.57;64.40;102217.13;5189047;28;20034;-72
2023/06/01 08:19:22;;;;;;;12.00;7.38;;;;;;;17.61;62.62;102219.34;5190280;28;20030;-72
2023/06/01 08:21:54;;;;;;;11.40;7.57;;;;;;;17.64;61.42;102220.88;5187783;28;21095;-72
2023/06/01 08:24:26;;;;;;;11.13;7.57;;;;;;;17.79;60.99;102224.78;5187888;28;20040;-72
2023/06/01 08:26:58;;;;;;;10.23;7.78;;;;;;;18.03;61.83;102228.75;5187674;28;20030;-72
2023/06/01 08:29:29;;;;;;;12.00;8.68;;;;;;;18.23;60.87;102223.22;5172041;28;20037;-72
2023/06/01 08:32:00;;;;;;;11.57;8.32;;;;;;;18.34;61.00;102221.38;5189781;28;20034;-72
2023/06/01 08:34:32;;;;;;;12.60;8.15;;;;;;;18.36;60.33;102216.75;5187685;28;20027;-72
2023/06/01 08:37:03;;;;;;;13.65;7.80;;;;;;;18.63;59.82;102219.38;5190159;28;20060;-72
2023/06/01 08:39:35;;;;;;;11.48;7.93;;;;;;;18.82;60.01;102212.31;5190622;28;20487;-72
2023/06/01 08:42:07;;;;;;;13.40;8.48;;;;;;;18.87;58.88;102218.84;5185593;28;20058;-72
2023/06/01 08:44:40;;;;;;;14.37;8.77;;;;;;;19.08;56.32;102212.38;5188703;28;20527;-72
2023/06/01 08:47:13;;;;;;;12.23;8.77;;;;;;;19.03;56.31;102219.97;5189144;28;20037;-72
2023/06/01 08:49:45;;;;;;;12.18;8.30;;;;;;;19.26;55.80;102225.66;5173573;28;20045;-72
2023/06/01 08:52:21;;;;;;;10.90;7.97;;;;;;;19.30;53.24;102209.25;5171591;28;20581;-72
2023/06/01 08:54:52;;;;;;;10.82;8.35;;;;;;;19.30;54.59;102213.72;5189517;28;20034;-71
2023/06/01 08:57:24;;;;;;;11.45;8.10;;;;;;;19.33;52.68;102194.84;5190337;28;20038;-72
2023/06/01 08:59:56;;;;;;;16.17;8.90;;;;;;;19.32;52.67;102203.78;5188619;28;20031;-72
2023/06/01 09:02:27;;;;;;;13.10;8.60;;;;;;;19.36;54.60;102206.00;5187270;28;20030;-72
2023/06/01 09:04:59;;;;;;;16.37;9.87;;;;;;;19.34;53.47;102205.28;5190494;28;20034;-72
2023/06/01 09:07:31;;;;;;;12.32;8.95;;;;;;;19.33;52.48;102211.59;5187678;28;20026;-72
2023/06/01 09:10:03;;;;;;;10.87;8.03;;;;;;;19.55;52.50;102209.44;5185971;28;20033;-73
2023/06/01 09:12:34;;;;;;;13.07;9.10;;;;;;;19.71;52.78;102208.75;5185890;28;20036;-73
2023/06/01 09:15:08;;;;;;;15.27;9.97;;;;;;;19.69;52.47;102190.28;5187640;28;20026;-73
2023/06/01 09:17:40;;;;;;;11.60;9.57;;;;;;;19.86;54.21;102194.69;5169946;28;20034;-72
2023/06/01 09:20:13;;;;;;;12.00;9.55;;;;;;;20.02;52.13;102193.13;5187970;28;20033;-73
2023/06/01 09:22:45;;;;;;;12.18;9.38;;;;;;;19.82;52.67;102192.53;5189472;28;20170;-73
2023/06/01 09:25:24;;;;;;;14.35;9.30;;;;;;;20.02;53.21;102180.63;5186916;28;20026;-74
2023/06/01 09:27:57;;;;;;;12.52;9.63;;;;;;;20.00;53.22;102190.63;5190018;28;20113;-73
2023/06/01 09:30:40;;;;;;;13.68;9.88;;;;;;;20.36;53.45;102185.09;5187886;28;20026;-72
2023/06/01 09:33:14;;;;;;;13.15;9.68;;;;;;;20.41;52.37;102183.59;5175056;28;20042;-72
2023/06/01 09:35:49;;;;;;;14.05;9.60;;;;;;;20.30;50.59;102183.06;5186527;28;20030;-71
2023/06/01 09:38:25;;;;;;;15.85;9.65;;;;;;;20.43;50.85;102183.44;5188341;28;20511;-71
2023/06/01 09:40:58;;;;;;;11.75;9.60;;;;;;;20.48;49.09;102178.47;5189823;28;20030;-72
2023/06/01 09:43:30;;;;;;;12.30;9.38;;;;;;;20.64;48.41;102169.69;5187111;28;20169;-72
2023/06/01 09:46:10;;;;;;;12.35;9.05;;;;;;;20.83;48.60;102169.38;5188100;28;20379;-71
2023/06/01 09:48:44;;;;;;;17.33;9.75;;;;;;;20.81;49.38;102166.06;5188869;28;20128;-72
2023/06/01 09:51:31;;;;;;;13.70;9.05;;;;;;;20.97;48.42;102167.09;5189500;28;20030;-72
2023/06/01 09:54:03;;;;;;;13.15;9.38;;;;;;;20.79;46.81;102169.88;5188609;28;20038;-72
2023/06/01 09:56:44;;;;;;;13.40;9.00;;;;;;;21.12;48.29;102168.91;5189012;28;20030;-72
2023/06/01 09:59:15;;;;;;;14.15;9.52;;;;;;;20.91;47.47;102171.25;5188573;28;20399;-71
2023/06/01 10:01:53;;;;;;;13.83;8.93;;;;;;;21.19;48.15;102165.59;5187166;28;20031;-71
2023/06/01 10:04:28;;;;;;;10.75;8.93;;;;;;;21.32;48.49;102166.72;5187921;28;20022;-72
2023/06/01 10:06:59;;;;;;;15.32;9.82;;;;;;;21.23;46.91;102153.59;5158917;28;20027;-72
2023/06/01 10:09:32;;;;;;;14.67;9.47;;;;;;;21.46;47.96;102157.25;5188965;28;20041;-71
2023/06/01 10:12:04;;;;;;;12.13;9.43;;;;;;;21.26;46.82;102154.09;5179720;28;20030;-72
2023/06/01 10:14:40;;;;;;;11.40;9.57;;;;;;;21.31;45.68;102150.91;5188342;28;20138;-71
2023/06/01 10:17:14;;;;;;;12.68;9.13;;;;;;;21.47;46.01;102161.56;5185589;28;20153;-72
2023/06/01 10:19:46;;;;;;;14.57;10.20;;;;;;;21.69;45.78;102153.84;5188148;28;20121;-72
2023/06/01 10:22:17;;;;;;;12.27;8.90;;;;;;;21.70;45.58;102158.16;5187383;28;20152;-72
2023/06/01 10:24:48;;;;;;;13.97;9.80;;;;;;;21.68;45.10;102152.19;5193305;28;20034;-72
2023/06/01 10:27:26;;;;;;;12.10;9.57;;;;;;;21.81;45.14;102147.13;5159703;28;20042;-72
2023/06/01 10:29:57;;;;;;;13.60;10.18;;;;;;;21.67;45.66;102147.84;5183127;28;20487;-72
2023/06/01 10:32:47;;;;;;;10.93;9.37;;;;;;;21.91;44.34;102142.44;5184160;28;20045;-72
2023/06/01 10:35:27;;;;;;;13.15;9.02;;;;;;;22.07;44.65;102145.00;5189757;28;20030;-72
2023/06/01 10:38:14;;;;;;;12.82;9.23;;;;;;;22.25;45.00;102142.13;5157196;28;20034;-72
2023/06/01 10:40:46;;;;;;;14.80;10.73;;;;;;;22.14;45.55;102141.69;5186582;28;20389;-72
2023/06/01 10:43:35;;;;;;;14.68;10.43;;;;;;;22.39;44.49;102140.56;5190264;28;20475;-72
2023/06/01 10:46:32;;;;;;;13.80;10.48;;;;;;;22.49;44.78;102137.63;5189484;28;20081;-72
2023/06/01 10:49:05;;;;;;;12.07;9.70;;;;;;;22.08;44.06;102143.19;5180747;28;20110;-72
2023/06/01 10:51:36;;;;;;;13.98;10.98;;;;;;;22.27;44.02;102145.44;5192897;28;20049;-72
2023/06/01 10:54:27;;;;;;;15.17;10.10;;;;;;;22.68;44.50;102137.16;5189372;28;20517;-72
2023/06/01 10:57:19;;;;;;;13.63;10.13;;;;;;;22.78;43.71;102142.28;5181912;28;20022;-72
2023/06/01 11:00:14;;;;;;;12.80;10.55;;;;;;;22.64;44.61;102138.53;5188629;28;20065;-71
2023/06/01 11:03:00;;;;;;;14.95;10.25;;;;;;;22.54;44.26;102144.13;5188747;28;20105;-72
2023/06/01 11:05:46;;;;;;;14.50;10.43;;;;;;;22.51;43.72;102139.13;5190020;28;20061;-72
2023/06/01 11:08:17;;;;;;;13.77;11.15;;;;;;;22.23;43.38;102133.44;5189238;28;20423;-72
2023/06/01 11:11:02;;;;;;;17.00;10.37;;;;;;;22.76;43.66;102133.59;5190523;28;20034;-72
2023/06/01 11:13:39;;;;;;;14.98;10.43;;;;;;;22.64;44.34;102135.03;5189876;28;20483;-71
2023/06/01 11:16:12;;;;;;;12.98;9.82;;;;;;;22.54;42.11;102125.44;5190451;28;20041;-71
2023/06/01 11:18:46;;;;;;;13.30;10.35;;;;;;;22.56;43.65;102120.72;5191243;28;20392;-71
2023/06/01 11:21:18;;;;;;;14.90;9.93;;;;;;;22.54;43.45;102124.56;5187855;28;20073;-71
2023/06/01 11:23:51;;;;;;;14.15;9.80;;;;;;;23.00;44.32;102130.75;5192102;28;20112;-72
2023/06/01 11:26:28;;;;;;;14.13;10.75;;;;;;;22.85;43.43;102123.69;5190580;28;20061;-73
2023/06/01 11:29:08;;;;;;;14.25;10.27;;;;;;;22.98;43.23;102132.78;5187028;28;20105;-72
2023/06/01 11:31:45;;;;;;;12.52;9.88;;;;;;;22.95;42.07;102119.75;5191162;28;20041;-72
2023/06/01 11:34:18;;;;;;;11.77;10.40;;;;;;;23.06;42.77;102122.00;5191280;28;20038;-72
2023/06/01 11:36:50;;;;;;;14.38;9.35;;;;;;;23.09;42.42;102125.34;5190946;28;20041;-72
2023/06/01 11:39:28;;;;;;;15.57;10.40;;;;;;;23.27;42.40;102120.47;5189654;28;20026;-73
2023/06/01 11:42:17;;;;;;;16.48;10.10;;;;;;;23.53;41.86;102128.06;5191276;28;20077;-73